createdAt,value
2018-08-09T01:00:36.931Z,0.00
2018-08-09T01:01:36.880Z,0.00
2018-08-09T01:02:36.909Z,0.00
2018-08-09T01:03:36.854Z,0.00
2018-08-09T01:04:36.842Z,0.00
2018-08-09T01:05:36.835Z,0.00
2018-08-09T01:06:36.820Z,0.00
2018-08-09T01:07:36.857Z,0.00
2018-08-09T01:08:36.799Z,0.00
2018-08-09T01:09:36.787Z,0.00
2018-08-09T01:10:36.777Z,0.00
2018-08-09T01:11:36.771Z,0.00
2018-08-09T01:12:36.797Z,0.00
2018-08-09T01:13:36.744Z,0.00
2018-08-09T01:14:36.736Z,0.00
2018-08-09T01:15:36.721Z,0.00
2018-08-09T01:16:36.712Z,0.00
2018-08-09T01:17:36.747Z,0.00
2018-08-09T01:18:36.690Z,0.00
2018-08-09T01:19:36.677Z,0.00
2018-08-09T01:20:36.665Z,0.00
2018-08-09T01:21:36.659Z,0.00
2018-08-09T01:22:36.689Z,0.00
2018-08-09T01:23:36.634Z,0.00
2018-08-09T01:24:36.628Z,0.00
2018-08-09T01:25:36.615Z,0.00
2018-08-09T01:26:36.601Z,0.00
2018-08-09T01:27:36.639Z,0.00
2018-08-09T01:28:36.583Z,0.00
2018-08-09T01:29:36.568Z,0.00
2018-08-09T01:30:36.563Z,0.00
2018-08-09T01:31:36.551Z,0.00
2018-08-09T01:32:36.581Z,0.00
2018-08-09T01:33:36.523Z,0.00
2018-08-09T01:34:36.511Z,0.00
2018-08-09T01:35:36.504Z,0.00
2018-08-09T01:36:36.491Z,0.00
2018-08-09T01:37:36.526Z,0.00
2018-08-09T01:38:36.468Z,0.00
2018-08-09T01:39:36.458Z,0.00
2018-08-09T01:40:36.446Z,0.00
2018-08-09T01:41:36.436Z,0.00
2018-08-09T01:42:36.474Z,0.00
2018-08-09T01:43:36.413Z,0.00
2018-08-09T01:44:36.406Z,0.00
2018-08-09T01:45:36.395Z,0.00
2018-08-09T01:46:36.381Z,0.00
2018-08-09T01:47:36.424Z,0.00
2018-08-09T01:48:36.358Z,0.00
2018-08-09T01:49:36.348Z,0.00
2018-08-09T01:50:36.346Z,0.00
2018-08-09T01:51:36.328Z,0.00
2018-08-09T01:52:36.361Z,0.00
2018-08-09T01:53:36.304Z,0.00
2018-08-09T01:54:36.295Z,0.00
2018-08-09T01:55:36.281Z,0.00
2018-08-09T01:56:36.272Z,0.00
2018-08-09T01:57:36.314Z,0.00
2018-08-09T01:58:36.251Z,0.00
2018-08-09T01:59:36.238Z,0.00
2018-08-09T02:00:36.235Z,0.00
2018-08-09T02:01:36.219Z,0.00
2018-08-09T02:02:36.250Z,0.00
2018-08-09T02:03:36.194Z,0.00
2018-08-09T02:04:36.206Z,0.00
2018-08-09T02:05:36.175Z,0.00
2018-08-09T02:06:36.160Z,0.00
2018-08-09T02:07:36.201Z,0.00
2018-08-09T02:08:36.141Z,0.00
2018-08-09T02:09:36.131Z,0.00
2018-08-09T02:10:36.116Z,0.00
2018-08-09T02:11:36.106Z,0.00
2018-08-09T02:12:36.095Z,0.00
2018-08-09T02:13:36.127Z,0.00
2018-08-09T02:14:36.071Z,0.00
2018-08-09T02:15:36.062Z,0.00
2018-08-09T02:16:36.059Z,0.00
2018-08-09T02:17:36.041Z,0.00
2018-08-09T02:18:36.073Z,0.00
2018-08-09T02:19:36.027Z,0.00
2018-08-09T02:20:36.007Z,0.00
2018-08-09T02:21:35.999Z,0.00
2018-08-09T02:22:35.983Z,0.00
2018-08-09T02:23:36.022Z,0.00
2018-08-09T02:24:35.976Z,0.00
2018-08-09T02:25:35.955Z,0.00
2018-08-09T02:26:35.941Z,0.00
2018-08-09T02:27:35.934Z,0.00
2018-08-09T02:28:35.965Z,0.00
2018-08-09T02:29:35.908Z,0.00
2018-08-09T02:30:35.897Z,0.00
2018-08-09T02:31:35.887Z,0.00
2018-08-09T02:32:35.877Z,0.00
2018-08-09T02:33:35.909Z,0.00
2018-08-09T02:34:35.872Z,0.00
2018-08-09T02:35:35.850Z,0.00
2018-08-09T02:36:35.831Z,0.00
2018-08-09T02:37:35.819Z,0.00
2018-08-09T02:38:35.874Z,0.00
2018-08-09T02:39:35.798Z,0.00
2018-08-09T02:40:35.791Z,0.00
2018-08-09T02:41:35.782Z,0.00
2018-08-09T02:42:35.771Z,0.00
2018-08-09T02:43:35.799Z,0.00
2018-08-09T02:44:35.744Z,0.00
2018-08-09T02:45:35.732Z,0.00
2018-08-09T02:46:35.770Z,0.00
2018-08-09T02:47:35.709Z,0.00
2018-08-09T02:48:35.751Z,0.00
2018-08-09T02:49:35.690Z,0.00
2018-08-09T02:50:35.678Z,0.00
2018-08-09T02:51:35.670Z,0.00
2018-08-09T02:52:35.654Z,0.00
2018-08-09T02:53:35.702Z,0.00
2018-08-09T02:54:35.637Z,0.00
2018-08-09T02:55:35.643Z,0.00
2018-08-09T02:56:35.611Z,0.00
2018-08-09T02:57:35.599Z,0.00
2018-08-09T02:58:35.635Z,0.00
2018-08-09T02:59:35.578Z,0.00
2018-08-09T03:00:35.598Z,0.00
2018-08-09T03:01:35.556Z,0.00
2018-08-09T03:02:35.548Z,0.00
2018-08-09T03:03:35.578Z,0.00
2018-08-09T03:04:35.524Z,0.00
2018-08-09T03:05:35.517Z,0.00
2018-08-09T03:06:35.501Z,0.00
2018-08-09T03:07:35.493Z,0.00
2018-08-09T03:08:35.525Z,0.00
2018-08-09T03:09:35.468Z,0.00
2018-08-09T03:10:35.458Z,0.00
2018-08-09T03:11:35.447Z,0.00
2018-08-09T03:12:35.435Z,0.00
2018-08-09T03:13:35.473Z,0.00
2018-08-09T03:14:35.420Z,0.00
2018-08-09T03:15:35.403Z,0.00
2018-08-09T03:16:35.393Z,0.00
2018-08-09T03:17:35.381Z,0.00
2018-08-09T03:18:35.414Z,0.00
2018-08-09T03:19:35.359Z,0.00
2018-08-09T03:20:35.354Z,0.00
2018-08-09T03:21:35.393Z,0.00
2018-08-09T03:22:35.325Z,0.00
2018-08-09T03:23:35.372Z,0.00
2018-08-09T03:24:35.305Z,0.00
2018-08-09T03:25:35.293Z,0.00
2018-08-09T03:26:35.287Z,0.00
2018-08-09T03:27:35.269Z,0.00
2018-08-09T03:28:35.338Z,0.00
2018-08-09T03:29:35.250Z,0.00
2018-08-09T03:30:35.237Z,0.00
2018-08-09T03:31:35.234Z,0.00
2018-08-09T03:32:35.216Z,0.00
2018-08-09T03:33:35.253Z,0.00
2018-08-09T03:34:35.205Z,0.00
2018-08-09T03:35:35.181Z,0.00
2018-08-09T03:36:35.169Z,0.00
2018-08-09T03:37:35.163Z,0.00
2018-08-09T03:38:35.195Z,0.00
2018-08-09T03:39:35.137Z,0.00
2018-08-09T03:40:35.127Z,0.00
2018-08-09T03:41:35.117Z,0.00
2018-08-09T03:42:35.109Z,4.00
2018-08-09T03:43:35.149Z,4.00
2018-08-09T03:44:35.085Z,0.00
2018-08-09T03:45:35.076Z,4.00
2018-08-09T03:46:35.062Z,4.00
2018-08-09T03:47:35.055Z,0.00
2018-08-09T03:48:35.039Z,4.00
2018-08-09T03:49:35.082Z,4.00
2018-08-09T03:50:35.021Z,4.00
2018-08-09T03:51:35.011Z,8.00
2018-08-09T03:52:34.998Z,8.00
2018-08-09T03:53:34.984Z,8.00
2018-08-09T03:54:35.025Z,12.00
2018-08-09T03:55:34.963Z,12.00
2018-08-09T03:56:34.951Z,12.00
2018-08-09T03:57:34.941Z,12.00
2018-08-09T03:58:34.936Z,16.00
2018-08-09T03:59:34.985Z,16.00
2018-08-09T04:00:34.912Z,20.00
2018-08-09T04:01:34.897Z,24.00
2018-08-09T04:02:34.887Z,24.00
2018-08-09T04:03:34.875Z,24.00
2018-08-09T04:04:34.912Z,32.00
2018-08-09T04:05:34.854Z,32.00
2018-08-09T04:06:34.845Z,36.00
2018-08-09T04:07:34.859Z,40.00
2018-08-09T04:08:34.821Z,40.00
2018-08-09T04:09:34.864Z,48.00
2018-08-09T04:10:34.802Z,52.00
2018-08-09T04:11:34.790Z,52.00
2018-08-09T04:12:34.779Z,60.00
2018-08-09T04:13:34.768Z,64.00
2018-08-09T04:14:34.802Z,68.00
2018-08-09T04:15:34.746Z,72.00
2018-08-09T04:16:34.734Z,80.00
2018-08-09T04:17:34.724Z,80.00
2018-08-09T04:18:34.711Z,88.00
2018-08-09T04:19:34.748Z,92.00
2018-08-09T04:20:34.694Z,96.00
2018-08-09T04:21:34.680Z,104.00
2018-08-09T04:22:34.668Z,104.00
2018-08-09T04:23:34.658Z,108.00
2018-08-09T04:24:34.690Z,116.00
2018-08-09T04:25:34.643Z,124.00
2018-08-09T04:26:34.663Z,128.00
2018-08-09T04:27:34.612Z,132.00
2018-08-09T04:28:34.600Z,140.00
2018-08-09T04:29:34.635Z,148.00
2018-08-09T04:30:34.578Z,152.00
2018-08-09T04:31:34.569Z,156.00
2018-08-09T04:32:34.554Z,164.00
2018-08-09T04:33:34.545Z,172.00
2018-08-09T04:34:34.588Z,176.00
2018-08-09T04:35:34.522Z,184.00
2018-08-09T04:36:34.510Z,188.00
2018-08-09T04:37:34.499Z,192.00
2018-08-09T04:38:34.488Z,200.00
2018-08-09T04:39:34.524Z,208.00
2018-08-09T04:40:34.471Z,216.00
2018-08-09T04:41:34.456Z,224.00
2018-08-09T04:42:34.449Z,232.00
2018-08-09T04:43:34.433Z,236.00
2018-08-09T04:44:34.481Z,240.00
2018-08-09T04:45:34.413Z,248.00
2018-08-09T04:46:34.399Z,252.00
2018-08-09T04:47:34.388Z,256.00
2018-08-09T04:48:34.383Z,256.00
2018-08-09T04:49:34.419Z,264.00
2018-08-09T04:50:34.356Z,268.00
2018-08-09T04:51:34.352Z,280.00
2018-08-09T04:52:34.350Z,284.00
2018-08-09T04:53:34.330Z,292.00
2018-08-09T04:54:34.358Z,280.00
2018-08-09T04:55:34.312Z,280.00
2018-08-09T04:56:34.289Z,284.00
2018-08-09T04:57:34.282Z,280.00
2018-08-09T04:58:34.271Z,280.00
2018-08-09T04:59:34.306Z,284.00
2018-08-09T05:00:34.246Z,288.00
2018-08-09T05:01:34.241Z,292.00
2018-08-09T05:02:34.226Z,292.00
2018-08-09T05:03:34.216Z,296.00
2018-08-09T05:04:34.245Z,296.00
2018-08-09T05:05:34.237Z,300.00
2018-08-09T05:06:34.184Z,304.00
2018-08-09T05:07:34.172Z,312.00
2018-08-09T05:08:34.157Z,320.00
2018-08-09T05:09:34.150Z,336.00
2018-08-09T05:10:34.183Z,348.00
2018-08-09T05:11:34.126Z,384.00
2018-08-09T05:12:34.116Z,420.00
2018-08-09T05:13:34.103Z,420.00
2018-08-09T05:14:34.093Z,420.00
2018-08-09T05:15:34.131Z,432.00
2018-08-09T05:16:34.072Z,416.00
2018-08-09T05:17:34.061Z,404.00
2018-08-09T05:18:34.052Z,404.00
2018-08-09T05:19:34.039Z,412.00
2018-08-09T05:20:34.074Z,436.00
2018-08-09T05:21:34.017Z,456.00
2018-08-09T05:22:34.016Z,468.00
2018-08-09T05:23:33.999Z,516.00
2018-08-09T05:24:33.983Z,608.00
2018-08-09T05:25:34.021Z,732.00
2018-08-09T05:26:33.962Z,828.00
2018-08-09T05:27:33.953Z,868.00
2018-08-09T05:28:33.941Z,864.00
2018-08-09T05:29:33.929Z,900.00
2018-08-09T05:30:33.964Z,896.00
2018-08-09T05:31:33.906Z,884.00
2018-08-09T05:32:33.902Z,872.00
2018-08-09T05:33:33.888Z,876.00
2018-08-09T05:34:33.898Z,904.00
2018-08-09T05:35:33.905Z,856.00
2018-08-09T05:36:33.853Z,776.00
2018-08-09T05:37:33.840Z,740.00
2018-08-09T05:38:33.828Z,736.00
2018-08-09T05:39:33.820Z,712.00
2018-08-09T05:40:33.855Z,632.00
2018-08-09T05:41:33.795Z,568.00
2018-08-09T05:42:33.785Z,576.00
2018-08-09T05:43:33.773Z,612.00
2018-08-09T05:44:33.765Z,616.00
2018-08-09T05:45:33.803Z,664.00
2018-08-09T05:46:33.751Z,760.00
2018-08-09T05:47:33.729Z,808.00
2018-08-09T05:48:33.732Z,796.00
2018-08-09T05:49:33.718Z,792.00
2018-08-09T05:50:33.742Z,800.00
2018-08-09T05:51:33.692Z,828.00
2018-08-09T05:52:33.700Z,884.00
2018-08-09T05:53:33.663Z,996.00
2018-08-09T05:54:33.655Z,1128.00
2018-08-09T05:55:33.687Z,1320.00
2018-08-09T05:56:33.634Z,1572.00
2018-08-09T05:57:33.638Z,1860.00
2018-08-09T05:58:33.662Z,2008.00
2018-08-09T05:59:33.598Z,2140.00
2018-08-09T06:00:33.588Z,2180.00
2018-08-09T06:01:33.622Z,2268.00
2018-08-09T06:02:33.567Z,2316.00
2018-08-09T06:03:33.555Z,2260.00
2018-08-09T06:04:33.544Z,2260.00
2018-08-09T06:05:33.582Z,2328.00
2018-08-09T06:06:33.568Z,2356.00
2018-08-09T06:07:33.513Z,3188.00
2018-08-09T06:08:33.503Z,2552.00
2018-08-09T06:09:33.488Z,2332.00
2018-08-09T06:10:33.481Z,2268.00
2018-08-09T06:11:33.515Z,2312.00
2018-08-09T06:12:33.458Z,2280.00
2018-08-09T06:13:33.522Z,2364.00
2018-08-09T06:14:33.434Z,2496.00
2018-08-09T06:15:33.421Z,2776.00
2018-08-09T06:16:33.484Z,2988.00
2018-08-09T06:17:33.403Z,2900.00
2018-08-09T06:18:33.389Z,3180.00
2018-08-09T06:19:33.382Z,3136.00
2018-08-09T06:20:33.370Z,3168.00
2018-08-09T06:21:33.402Z,2936.00
2018-08-09T06:22:33.348Z,2820.00
2018-08-09T06:23:33.341Z,2868.00
2018-08-09T06:24:33.326Z,2620.00
2018-08-09T06:25:33.314Z,2292.00
2018-08-09T06:26:33.350Z,2212.00
2018-08-09T06:27:33.297Z,2160.00
2018-08-09T06:28:33.286Z,2056.00
2018-08-09T06:29:33.271Z,1984.00
2018-08-09T06:30:33.271Z,1872.00
2018-08-09T06:31:33.294Z,1984.00
2018-08-09T06:32:33.240Z,1828.00
2018-08-09T06:33:33.310Z,2000.00
2018-08-09T06:34:33.214Z,1756.00
2018-08-09T06:35:33.203Z,1752.00
2018-08-09T06:36:33.239Z,1788.00
2018-08-09T06:37:33.186Z,2052.00
2018-08-09T06:38:33.174Z,2496.00
2018-08-09T06:39:33.160Z,2948.00
2018-08-09T06:40:33.154Z,3632.00
2018-08-09T06:41:33.197Z,4552.00
2018-08-09T06:42:33.131Z,5148.00
2018-08-09T06:43:33.121Z,5868.00
2018-08-09T06:44:33.106Z,6328.00
2018-08-09T06:45:33.097Z,6568.00
2018-08-09T06:46:33.083Z,6768.00
2018-08-09T06:47:33.164Z,6756.00
2018-08-09T06:48:33.069Z,6552.00
2018-08-09T06:49:33.052Z,6640.00
2018-08-09T06:50:33.051Z,6612.00
2018-08-09T06:51:33.029Z,6040.00
2018-08-09T06:52:33.064Z,6468.00
2018-08-09T06:53:33.006Z,5372.00
2018-08-09T06:54:33.000Z,6304.00
2018-08-09T06:55:32.984Z,3148.00
2018-08-09T06:56:32.973Z,1532.00
2018-08-09T06:57:33.013Z,1416.00
2018-08-09T06:58:32.951Z,1304.00
2018-08-09T06:59:32.939Z,1228.00
2018-08-09T07:00:32.930Z,1308.00
2018-08-09T07:01:32.920Z,1500.00
2018-08-09T07:02:32.951Z,1960.00
2018-08-09T07:03:32.895Z,2252.00
2018-08-09T07:04:32.886Z,2328.00
2018-08-09T07:05:32.872Z,2304.00
2018-08-09T07:06:32.863Z,2220.00
2018-08-09T07:07:32.896Z,2196.00
2018-08-09T07:08:32.840Z,2288.00
2018-08-09T07:09:32.829Z,2404.00
2018-08-09T07:10:32.817Z,2456.00
2018-08-09T07:11:32.808Z,2380.00
2018-08-09T07:12:32.841Z,2216.00
2018-08-09T07:13:32.789Z,2132.00
2018-08-09T07:14:32.773Z,2344.00
2018-08-09T07:15:32.763Z,2296.00
2018-08-09T07:16:32.762Z,3928.00
2018-08-09T07:17:32.787Z,4180.00
2018-08-09T07:18:32.732Z,3720.00
2018-08-09T07:19:32.724Z,3384.00
2018-08-09T07:20:32.707Z,2808.00
2018-08-09T07:21:32.698Z,2916.00
2018-08-09T07:22:32.733Z,2712.00
2018-08-09T07:23:32.676Z,2868.00
2018-08-09T07:24:32.671Z,3036.00
2018-08-09T07:25:32.655Z,3176.00
2018-08-09T07:26:32.720Z,3228.00
2018-08-09T07:27:32.718Z,3244.00
2018-08-09T07:28:32.624Z,3560.00
2018-08-09T07:29:32.616Z,3256.00
2018-08-09T07:30:32.601Z,3148.00
2018-08-09T07:31:32.589Z,2996.00
2018-08-09T07:32:32.625Z,2852.00
2018-08-09T07:33:32.567Z,2860.00
2018-08-09T07:34:32.556Z,2880.00
2018-08-09T07:35:32.543Z,2884.00
2018-08-09T07:36:32.574Z,2952.00
2018-08-09T07:37:32.583Z,3180.00
2018-08-09T07:38:32.511Z,3276.00
2018-08-09T07:39:32.611Z,3504.00
2018-08-09T07:40:32.487Z,3492.00
2018-08-09T07:41:32.476Z,3556.00
2018-08-09T07:42:32.516Z,3628.00
2018-08-09T07:43:32.469Z,3876.00
2018-08-09T07:44:32.443Z,4104.00
2018-08-09T07:45:32.434Z,4236.00
2018-08-09T07:46:32.428Z,4296.00
2018-08-09T07:47:32.468Z,4388.00
2018-08-09T07:48:32.425Z,4376.00
2018-08-09T07:49:32.387Z,4436.00
2018-08-09T07:50:32.375Z,4712.00
2018-08-09T07:51:32.372Z,4012.00
2018-08-09T07:52:32.412Z,3908.00
2018-08-09T07:53:32.343Z,4208.00
2018-08-09T07:54:32.351Z,3728.00
2018-08-09T07:55:32.321Z,3228.00
2018-08-09T07:56:32.314Z,3212.00
2018-08-09T07:57:32.365Z,3156.00
2018-08-09T07:58:32.290Z,3416.00
2018-08-09T07:59:32.278Z,3672.00
2018-08-09T08:00:32.274Z,3624.00
2018-08-09T08:01:32.258Z,3356.00
2018-08-09T08:02:32.326Z,3196.00
2018-08-09T08:03:32.239Z,3136.00
2018-08-09T08:04:32.228Z,3196.00
2018-08-09T08:05:32.214Z,3540.00
2018-08-09T08:06:32.208Z,4156.00
2018-08-09T08:07:32.197Z,5176.00
2018-08-09T08:08:32.310Z,5708.00
2018-08-09T08:09:32.178Z,6108.00
2018-08-09T08:10:32.165Z,5504.00
2018-08-09T08:11:32.171Z,5400.00
2018-08-09T08:12:32.147Z,5208.00
2018-08-09T08:13:32.186Z,5264.00
2018-08-09T08:14:32.127Z,5412.00
2018-08-09T08:15:32.110Z,5180.00
2018-08-09T08:16:32.108Z,5088.00
2018-08-09T08:17:32.085Z,4824.00
2018-08-09T08:18:32.119Z,4772.00
2018-08-09T08:19:32.065Z,4852.00
2018-08-09T08:20:32.052Z,4904.00
2018-08-09T08:21:32.041Z,4964.00
2018-08-09T08:22:32.034Z,5064.00
2018-08-09T08:23:32.070Z,5188.00
2018-08-09T08:24:32.008Z,5248.00
2018-08-09T08:25:31.998Z,5400.00
2018-08-09T08:26:31.986Z,5572.00
2018-08-09T08:27:31.976Z,5224.00
2018-08-09T08:28:32.019Z,4560.00
2018-08-09T08:29:31.953Z,4204.00
2018-08-09T08:30:31.948Z,3860.00
2018-08-09T08:31:31.938Z,3696.00
2018-08-09T08:32:31.942Z,3676.00
2018-08-09T08:33:32.006Z,2988.00
2018-08-09T08:34:31.920Z,2512.00
2018-08-09T08:35:31.944Z,2480.00
2018-08-09T08:36:31.891Z,2940.00
2018-08-09T08:37:31.879Z,2724.00
2018-08-09T08:38:32.057Z,2344.00
2018-08-09T08:39:31.849Z,2400.00
2018-08-09T08:40:31.841Z,2716.00
2018-08-09T08:41:31.905Z,2856.00
2018-08-09T08:42:31.817Z,3032.00
2018-08-09T08:43:31.859Z,3356.00
2018-08-09T08:44:31.799Z,3484.00
2018-08-09T08:45:31.792Z,3476.00
2018-08-09T08:46:31.783Z,4028.00
2018-08-09T08:47:31.849Z,4288.00
2018-08-09T08:48:31.798Z,3892.00
2018-08-09T08:49:31.848Z,4088.00
2018-08-09T08:50:31.731Z,3120.00
2018-08-09T08:51:31.725Z,3068.00
2018-08-09T08:52:31.711Z,3092.00
2018-08-09T08:53:31.742Z,2972.00
2018-08-09T08:54:31.688Z,3148.00
2018-08-09T08:55:31.682Z,3108.00
2018-08-09T08:56:31.664Z,3524.00
2018-08-09T08:57:31.661Z,4024.00
2018-08-09T08:58:31.691Z,5448.00
2018-08-09T08:59:31.645Z,8184.00
2018-08-09T09:00:31.625Z,4212.00
2018-08-09T09:01:31.630Z,4136.00
2018-08-09T09:02:31.602Z,4624.00
2018-08-09T09:03:31.654Z,5232.00
2018-08-09T09:04:31.582Z,5444.00
2018-08-09T09:05:31.568Z,5808.00
2018-08-09T09:06:31.556Z,6008.00
2018-08-09T09:07:31.545Z,6104.00
2018-08-09T09:08:31.536Z,6208.00
2018-08-09T09:09:31.568Z,6740.00
2018-08-09T09:10:31.514Z,6224.00
2018-08-09T09:11:31.506Z,5520.00
2018-08-09T09:12:31.492Z,4664.00
2018-08-09T09:13:31.483Z,3904.00
2018-08-09T09:14:31.525Z,3664.00
2018-08-09T09:15:31.463Z,3476.00
2018-08-09T09:16:31.451Z,3060.00
2018-08-09T09:17:31.441Z,2752.00
2018-08-09T09:18:31.443Z,2632.00
2018-08-09T09:19:31.468Z,2592.00
2018-08-09T09:20:31.410Z,2720.00
2018-08-09T09:21:31.396Z,2968.00
2018-08-09T09:22:31.384Z,3200.00
2018-08-09T09:23:31.387Z,3392.00
2018-08-09T09:24:31.413Z,3644.00
2018-08-09T09:25:31.350Z,4100.00
2018-08-09T09:26:31.352Z,4460.00
2018-08-09T09:27:31.332Z,4420.00
2018-08-09T09:28:31.320Z,4064.00
2018-08-09T09:29:31.354Z,3924.00
2018-08-09T09:30:31.298Z,3892.00
2018-08-09T09:31:31.312Z,4044.00
2018-08-09T09:32:31.302Z,3952.00
2018-08-09T09:33:31.311Z,4200.00
2018-08-09T09:34:31.324Z,3888.00
2018-08-09T09:35:31.245Z,3396.00
2018-08-09T09:36:31.249Z,3460.00
2018-08-09T09:37:31.228Z,3520.00
2018-08-09T09:38:31.232Z,3552.00
2018-08-09T09:39:31.254Z,4000.00
2018-08-09T09:40:31.199Z,3932.00
2018-08-09T09:41:31.258Z,4212.00
2018-08-09T09:42:31.169Z,4280.00
2018-08-09T09:43:31.163Z,4044.00
2018-08-09T09:44:31.229Z,4008.00
2018-08-09T09:45:31.137Z,3916.00
2018-08-09T09:46:31.135Z,4608.00
2018-08-09T09:47:31.120Z,5172.00
2018-08-09T09:48:31.122Z,7952.00
2018-08-09T09:49:31.152Z,7516.00
2018-08-09T09:50:31.084Z,9768.00
2018-08-09T09:51:31.074Z,3612.00
2018-08-09T09:52:31.062Z,4064.00
2018-08-09T09:53:31.051Z,3320.00
2018-08-09T09:54:31.089Z,3272.00
2018-08-09T09:55:31.044Z,3228.00
2018-08-09T09:56:31.024Z,3200.00
2018-08-09T09:57:31.007Z,3184.00
2018-08-09T09:58:30.998Z,3068.00
2018-08-09T09:59:31.045Z,3132.00
2018-08-09T10:00:30.976Z,3120.00
2018-08-09T10:01:30.965Z,3128.00
2018-08-09T10:02:30.952Z,3104.00
2018-08-09T10:03:30.942Z,3884.00
2018-08-09T10:04:30.978Z,3160.00
2018-08-09T10:05:30.920Z,3272.00
2018-08-09T10:06:30.911Z,3272.00
2018-08-09T10:07:30.902Z,3312.00
2018-08-09T10:08:30.891Z,3292.00
2018-08-09T10:09:30.923Z,4724.00
2018-08-09T10:10:30.933Z,3488.00
2018-08-09T10:11:30.869Z,3452.00
2018-08-09T10:12:30.845Z,3404.00
2018-08-09T10:13:30.841Z,6820.00
2018-08-09T10:14:30.870Z,10792.00
2018-08-09T10:15:30.818Z,10920.00
2018-08-09T10:16:30.803Z,5976.00
2018-08-09T10:17:30.793Z,3324.00
2018-08-09T10:18:30.788Z,6276.00
2018-08-09T10:19:30.817Z,3204.00
2018-08-09T10:20:30.762Z,3104.00
2018-08-09T10:21:30.753Z,3072.00
2018-08-09T10:22:30.741Z,3012.00
2018-08-09T10:23:30.734Z,3556.00
2018-08-09T10:24:30.717Z,3540.00
2018-08-09T10:25:30.751Z,7940.00
2018-08-09T10:26:30.697Z,3292.00
2018-08-09T10:27:30.691Z,8744.00
2018-08-09T10:28:30.676Z,5412.00
2018-08-09T10:29:30.668Z,3120.00
2018-08-09T10:30:30.700Z,3144.00
2018-08-09T10:31:30.646Z,3120.00
2018-08-09T10:32:30.633Z,2888.00
2018-08-09T10:33:30.622Z,3884.00
2018-08-09T10:34:30.613Z,8152.00
2018-08-09T10:35:30.745Z,3792.00
2018-08-09T10:36:30.607Z,3748.00
2018-08-09T10:37:30.581Z,3532.00
2018-08-09T10:38:30.578Z,5244.00
2018-08-09T10:39:30.561Z,5528.00
2018-08-09T10:40:30.593Z,4640.00
2018-08-09T10:41:30.536Z,3592.00
2018-08-09T10:42:30.525Z,3144.00
2018-08-09T10:43:30.518Z,4200.00
2018-08-09T10:44:30.510Z,8152.00
2018-08-09T10:45:30.539Z,3684.00
2018-08-09T10:46:30.488Z,4120.00
2018-08-09T10:47:30.488Z,5140.00
2018-08-09T10:48:30.462Z,5640.00
2018-08-09T10:49:30.470Z,11036.00
2018-08-09T10:50:30.488Z,15624.00
2018-08-09T10:51:30.433Z,5580.00
2018-08-09T10:52:30.423Z,10852.00
2018-08-09T10:53:30.409Z,3548.00
2018-08-09T10:54:30.398Z,4672.00
2018-08-09T10:55:30.440Z,4672.00
2018-08-09T10:56:30.391Z,3628.00
2018-08-09T10:57:30.366Z,3912.00
2018-08-09T10:58:30.451Z,3776.00
2018-08-09T10:59:30.346Z,3908.00
2018-08-09T11:00:30.382Z,3980.00
2018-08-09T11:01:30.326Z,4288.00
2018-08-09T11:02:30.319Z,4752.00
2018-08-09T11:03:30.305Z,6332.00
2018-08-09T11:04:30.302Z,4572.00
2018-08-09T11:05:30.326Z,4836.00
2018-08-09T11:06:30.273Z,5716.00
2018-08-09T11:07:30.308Z,7796.00
2018-08-09T11:08:30.264Z,12880.00
2018-08-09T11:09:30.242Z,9740.00
2018-08-09T11:10:30.238Z,6056.00
2018-08-09T11:11:30.224Z,4516.00
2018-08-09T11:12:30.254Z,5204.00
2018-08-09T11:13:30.204Z,5808.00
2018-08-09T11:14:30.189Z,6660.00
2018-08-09T11:15:30.179Z,4956.00
2018-08-09T11:16:30.175Z,4608.00
2018-08-09T11:17:30.203Z,5240.00
2018-08-09T11:18:30.146Z,5072.00
2018-08-09T11:19:30.137Z,10424.00
2018-08-09T11:20:30.129Z,5900.00
2018-08-09T11:21:30.116Z,5488.00
2018-08-09T11:22:30.155Z,7012.00
2018-08-09T11:23:30.095Z,9880.00
2018-08-09T11:24:30.084Z,8412.00
2018-08-09T11:25:30.073Z,6824.00
2018-08-09T11:26:30.067Z,8304.00
2018-08-09T11:27:30.099Z,12420.00
2018-08-09T11:28:30.051Z,56992.00
2018-08-09T11:29:30.030Z,16224.00
2018-08-09T11:30:30.020Z,45344.00
2018-08-09T11:31:30.010Z,33760.00
2018-08-09T11:32:30.000Z,25824.00
2018-08-09T11:33:30.041Z,6620.00
2018-08-09T11:34:29.979Z,8528.00
2018-08-09T11:35:29.968Z,10192.00
2018-08-09T11:36:29.957Z,10912.00
2018-08-09T11:37:29.946Z,17088.00
2018-08-09T11:38:29.979Z,10732.00
2018-08-09T11:39:29.937Z,7796.00
2018-08-09T11:40:29.917Z,28128.00
2018-08-09T11:41:29.903Z,15904.00
2018-08-09T11:42:29.895Z,24448.00
2018-08-09T11:43:29.947Z,35072.00
2018-08-09T11:44:29.874Z,27424.00
2018-08-09T11:45:29.874Z,23392.00
2018-08-09T11:46:29.855Z,7564.00
2018-08-09T11:47:29.842Z,29184.00
2018-08-09T11:48:29.877Z,25696.00
2018-08-09T11:49:29.833Z,24768.00
2018-08-09T11:50:29.811Z,10508.00
2018-08-09T11:51:29.800Z,16512.00
2018-08-09T11:52:29.800Z,16320.00
2018-08-09T11:53:29.823Z,25248.00
2018-08-09T11:54:29.769Z,35904.00
2018-08-09T11:55:29.770Z,34432.00
2018-08-09T11:56:29.861Z,17792.00
2018-08-09T11:57:29.740Z,30720.00
2018-08-09T11:58:29.783Z,24224.00
2018-08-09T11:59:29.718Z,16640.00
2018-08-09T12:00:29.710Z,16160.00
2018-08-09T12:01:29.746Z,37216.00
2018-08-09T12:02:29.689Z,41888.00
2018-08-09T12:03:29.752Z,75584.00
2018-08-09T12:04:29.682Z,57344.00
2018-08-09T12:05:29.657Z,48192.00
2018-08-09T12:06:29.653Z,33664.00
2018-08-09T12:07:29.634Z,29696.00
2018-08-09T12:08:29.670Z,30176.00
2018-08-09T12:09:29.664Z,36128.00
2018-08-09T12:10:29.606Z,37440.00
2018-08-09T12:11:29.611Z,34496.00
2018-08-09T12:12:29.590Z,49184.00
2018-08-09T12:13:29.725Z,54400.00
2018-08-09T12:14:29.566Z,56960.00
2018-08-09T12:15:29.557Z,52352.00
2018-08-09T12:16:29.543Z,58592.00
2018-08-09T12:17:29.564Z,69088.00
2018-08-09T12:18:29.568Z,72832.00
2018-08-09T12:19:29.515Z,42720.00
2018-08-09T12:20:29.503Z,47104.00
2018-08-09T12:21:29.496Z,51904.00
2018-08-09T12:22:29.483Z,70592.00
2018-08-09T12:23:29.521Z,76032.00
2018-08-09T12:24:29.465Z,65312.00
2018-08-09T12:25:29.457Z,68960.00
2018-08-09T12:26:29.450Z,68064.00
2018-08-09T12:27:29.440Z,66656.00
2018-08-09T12:28:29.472Z,64128.00
2018-08-09T12:29:29.420Z,62368.00
2018-08-09T12:30:29.448Z,58432.00
2018-08-09T12:31:29.396Z,38880.00
2018-08-09T12:32:29.386Z,43648.00
2018-08-09T12:33:29.426Z,35680.00
2018-08-09T12:34:29.365Z,25696.00
2018-08-09T12:35:29.359Z,15624.00
2018-08-09T12:36:29.367Z,12752.00
2018-08-09T12:37:29.334Z,7844.00
2018-08-09T12:38:29.368Z,3904.00
2018-08-09T12:39:29.318Z,3948.00
2018-08-09T12:40:29.305Z,5584.00
2018-08-09T12:41:29.296Z,7496.00
2018-08-09T12:42:29.286Z,6300.00
2018-08-09T12:43:29.318Z,5612.00
2018-08-09T12:44:29.270Z,4136.00
2018-08-09T12:45:29.264Z,3636.00
2018-08-09T12:46:29.243Z,2844.00
2018-08-09T12:47:29.234Z,2096.00
2018-08-09T12:48:29.269Z,1568.00
2018-08-09T12:49:29.213Z,1120.00
2018-08-09T12:50:29.239Z,1092.00
2018-08-09T12:51:29.301Z,664.00
2018-08-09T12:52:29.196Z,856.00
2018-08-09T12:53:29.230Z,528.00
2018-08-09T12:54:29.162Z,776.00
2018-08-09T12:55:29.152Z,1028.00
2018-08-09T12:56:29.149Z,1108.00
2018-08-09T12:57:29.135Z,1092.00
2018-08-09T12:58:29.170Z,896.00
2018-08-09T12:59:29.109Z,1120.00
2018-08-09T13:00:29.099Z,1452.00
2018-08-09T13:01:29.089Z,1940.00
2018-08-09T13:02:29.129Z,3080.00
2018-08-09T13:03:29.114Z,5088.00
2018-08-09T13:04:29.059Z,6564.00
2018-08-09T13:05:29.054Z,6912.00
2018-08-09T13:06:29.035Z,6880.00
2018-08-09T13:07:29.029Z,6756.00
2018-08-09T13:08:29.104Z,5820.00
2018-08-09T13:09:29.003Z,5916.00
2018-08-09T13:10:28.997Z,4796.00
2018-08-09T13:11:29.033Z,3744.00
2018-08-09T13:12:28.974Z,3132.00
2018-08-09T13:13:29.011Z,2260.00
2018-08-09T13:14:28.964Z,1748.00
2018-08-09T13:15:28.945Z,2168.00
2018-08-09T13:16:28.941Z,2832.00
2018-08-09T13:17:28.919Z,3756.00
2018-08-09T13:18:28.959Z,4788.00
2018-08-09T13:19:28.900Z,4144.00
2018-08-09T13:20:28.885Z,3456.00
2018-08-09T13:21:28.876Z,3204.00
2018-08-09T13:22:28.866Z,3024.00
2018-08-09T13:23:28.938Z,3160.00
2018-08-09T13:24:28.841Z,3156.00